sensor_id;sensor_type;location;lat;lon;timestamp;pressure;altitude;pressure_sealevel;temperature;humidity
57616;BME280;43816;52.054;-9.494;2022-10-16T00:00:05;99765.94;;;19.47;42.08
57616;BME280;43816;52.054;-9.494;2022-10-16T00:00:16;99780.00;;;19.51;41.58
57616;BME280;43816;52.054;-9.494;2022-10-16T00:00:26;99786.53;;;19.56;41.60
57616;BME280;43816;52.054;-9.494;2022-10-16T00:00:37;99774.75;;;19.49;41.56
57616;BME280;43816;52.054;-9.494;2022-10-16T00:00:48;99777.06;;;19.52;41.65
57616;BME280;43816;52.054;-9.494;2022-10-16T00:01:04;99776.00;;;19.53;41.54
57616;BME280;43816;52.054;-9.494;2022-10-16T00:01:19;99781.28;;;19.55;41.58
57616;BME280;43816;52.054;-9.494;2022-10-16T00:01:30;99769.09;;;19.51;41.70
57616;BME280;43816;52.054;-9.494;2022-10-16T00:01:41;99776.69;;;19.55;41.57
57616;BME280;43816;52.054;-9.494;2022-10-16T00:01:51;99779.41;;;19.55;41.59
57616;BME280;43816;52.054;-9.494;2022-10-16T00:02:02;99775.38;;;19.51;41.43
57616;BME280;43816;52.054;-9.494;2022-10-16T00:02:12;99770.31;;;19.48;41.76
57616;BME280;43816;52.054;-9.494;2022-10-16T00:02:22;99780.44;;;19.54;41.65
57616;BME280;43816;52.054;-9.494;2022-10-16T00:02:32;99780.44;;;19.54;41.47
57616;BME280;43816;52.054;-9.494;2022-10-16T00:02:43;99790.31;;;19.55;41.64
57616;BME280;43816;52.054;-9.494;2022-10-16T00:02:53;99764.22;;;19.46;41.72
57616;BME280;43816;52.054;-9.494;2022-10-16T00:03:04;99785.91;;;19.54;41.61
57616;BME280;43816;52.054;-9.494;2022-10-16T00:03:14;99768.84;;;19.46;41.64
57616;BME280;43816;52.054;-9.494;2022-10-16T00:03:25;99774.09;;;19.47;41.70
57616;BME280;43816;52.054;-9.494;2022-10-16T00:03:35;99782.34;;;19.54;41.69
57616;BME280;43816;52.054;-9.494;2022-10-16T00:03:47;99774.75;;;19.49;41.67
57616;BME280;43816;52.054;-9.494;2022-10-16T00:03:59;99761.47;;;19.39;41.58
57616;BME280;43816;52.054;-9.494;2022-10-16T00:04:10;99789.66;;;19.53;41.49
57616;BME280;43816;52.054;-9.494;2022-10-16T00:04:20;99764.63;;;19.43;41.44
57616;BME280;43816;52.054;-9.494;2022-10-16T00:04:30;99764.22;;;19.46;41.56
57616;BME280;43816;52.054;-9.494;2022-10-16T00:04:41;99766.97;;;19.46;41.47
57616;BME280;43816;52.054;-9.494;2022-10-16T00:04:51;99768.03;;;19.45;41.67
57616;BME280;43816;52.054;-9.494;2022-10-16T00:05:01;99772.22;;;19.48;41.52
57616;BME280;43816;52.054;-9.494;2022-10-16T00:05:12;99755.16;;;19.39;41.51
57616;BME280;43816;52.054;-9.494;2022-10-16T00:05:22;99771.38;;;19.47;41.60
57616;BME280;43816;52.054;-9.494;2022-10-16T00:05:33;99776.84;;;19.47;41.72
57616;BME280;43816;52.054;-9.494;2022-10-16T00:05:47;99772.44;;;19.53;41.62
57616;BME280;43816;52.054;-9.494;2022-10-16T00:05:59;99778.75;;;19.53;41.69
57616;BME280;43816;52.054;-9.494;2022-10-16T00:06:11;99766.13;;;19.46;41.55
57616;BME280;43816;52.054;-9.494;2022-10-16T00:06:22;99775.19;;;19.53;41.60
57616;BME280;43816;52.054;-9.494;2022-10-16T00:06:33;99773.72;;;19.50;41.74
57616;BME280;43816;52.054;-9.494;2022-10-16T00:06:43;99767.59;;;19.48;42.09
57616;BME280;43816;52.054;-9.494;2022-10-16T00:06:53;99775.38;;;19.51;41.68
57616;BME280;43816;52.054;-9.494;2022-10-16T00:07:04;99778.75;;;19.53;41.53
57616;BME280;43816;52.054;-9.494;2022-10-16T00:07:14;99766.97;;;19.46;41.62
57616;BME280;43816;52.054;-9.494;2022-10-16T00:07:24;99768.03;;;19.45;41.57
57616;BME280;43816;52.054;-9.494;2022-10-16T00:07:34;99780.63;;;19.53;41.52
57616;BME280;43816;52.054;-9.494;2022-10-16T00:07:45;99774.09;;;19.47;41.62
57616;BME280;43816;52.054;-9.494;2022-10-16T00:07:55;99767.16;;;19.45;41.76
57616;BME280;43816;52.054;-9.494;2022-10-16T00:08:06;99773.25;;;19.47;41.48
57616;BME280;43816;52.054;-9.494;2022-10-16T00:08:16;99775.38;;;19.51;41.53
57616;BME280;43816;52.054;-9.494;2022-10-16T00:08:27;99782.53;;;19.52;41.49
57616;BME280;43816;52.054;-9.494;2022-10-16T00:08:38;99775.38;;;19.51;41.56
57616;BME280;43816;52.054;-9.494;2022-10-16T00:08:49;99777.47;;;19.49;41.60
57616;BME280;43816;52.054;-9.494;2022-10-16T00:09:00;99759.56;;;19.40;41.15
57616;BME280;43816;52.054;-9.494;2022-10-16T00:09:10;99779.16;;;19.50;41.49
57616;BME280;43816;52.054;-9.494;2022-10-16T00:09:21;99768.63;;;19.40;41.54
57616;BME280;43816;52.054;-9.494;2022-10-16T00:09:31;99791.94;;;19.50;41.63
57616;BME280;43816;52.054;-9.494;2022-10-16T00:09:41;99766.53;;;19.42;41.65
57616;BME280;43816;52.054;-9.494;2022-10-16T00:09:51;99778.69;;;19.47;41.87
57616;BME280;43816;52.054;-9.494;2022-10-16T00:10:02;99769.63;;;19.39;41.62
57616;BME280;43816;52.054;-9.494;2022-10-16T00:10:12;99768.22;;;19.44;41.48
57616;BME280;43816;52.054;-9.494;2022-10-16T00:10:23;99772.59;;;19.45;41.56
57616;BME280;43816;52.054;-9.494;2022-10-16T00:10:34;99777.88;;;19.46;41.48
57616;BME280;43816;52.054;-9.494;2022-10-16T00:10:44;99782.94;;;19.49;41.60
57616;BME280;43816;52.054;-9.494;2022-10-16T00:10:59;99765.50;;;19.44;41.32
57616;BME280;43816;52.054;-9.494;2022-10-16T00:11:33;99770.94;;;19.44;41.44
57616;BME280;43816;52.054;-9.494;2022-10-16T00:11:43;99767.34;;;19.43;41.64
57616;BME280;43816;52.054;-9.494;2022-10-16T00:11:53;99763.16;;;19.40;41.62
57616;BME280;43816;52.054;-9.494;2022-10-16T00:12:04;99762.28;;;19.40;41.68
57616;BME280;43816;52.054;-9.494;2022-10-16T00:12:14;99778.69;;;19.47;41.62
57616;BME280;43816;52.054;-9.494;2022-10-16T00:12:24;99779.38;;;19.49;41.63
57616;BME280;43816;52.054;-9.494;2022-10-16T00:12:35;99768.41;;;19.42;41.71
57616;BME280;43816;52.054;-9.494;2022-10-16T00:12:45;99760.63;;;19.39;41.58
57616;BME280;43816;52.054;-9.494;2022-10-16T00:12:55;99767.34;;;19.43;41.38
57616;BME280;43816;52.054;-9.494;2022-10-16T00:13:06;99774.94;;;19.48;41.64
57616;BME280;43816;52.054;-9.494;2022-10-16T00:13:16;99760.81;;;19.37;41.45
57616;BME280;43816;52.054;-9.494;2022-10-16T00:13:28;99767.75;;;19.40;41.60
57616;BME280;43816;52.054;-9.494;2022-10-16T00:13:39;99771.38;;;19.47;41.55
57616;BME280;43816;52.054;-9.494;2022-10-16T00:13:54;99761.25;;;19.41;41.68
57616;BME280;43816;52.054;-9.494;2022-10-16T00:14:08;99772.81;;;19.43;41.69
57616;BME280;43816;52.054;-9.494;2022-10-16T00:14:18;99777.66;;;19.48;41.60
57616;BME280;43816;52.054;-9.494;2022-10-16T00:14:29;99750.13;;;19.36;41.45
57616;BME280;43816;52.054;-9.494;2022-10-16T00:14:39;99768.41;;;19.42;41.50
57616;BME280;43816;52.054;-9.494;2022-10-16T00:14:49;99767.75;;;19.40;41.45
57616;BME280;43816;52.054;-9.494;2022-10-16T00:14:59;99739.56;;;19.26;41.64
57616;BME280;43816;52.054;-9.494;2022-10-16T00:15:10;99771.13;;;19.42;41.41
57616;BME280;43816;52.054;-9.494;2022-10-16T00:15:20;99776.84;;;19.47;41.55
57616;BME280;43816;52.054;-9.494;2022-10-16T00:15:33;99771.13;;;19.42;41.46
57616;BME280;43816;52.054;-9.494;2022-10-16T00:15:43;99779.31;;;19.42;41.51
57616;BME280;43816;52.054;-9.494;2022-10-16T00:15:58;99769.44;;;19.41;41.69
57616;BME280;43816;52.054;-9.494;2022-10-16T00:16:09;99779.31;;;19.42;41.58
57616;BME280;43816;52.054;-9.494;2022-10-16T00:16:20;99771.34;;;19.40;41.59
57616;BME280;43816;52.054;-9.494;2022-10-16T00:16:30;99766.09;;;19.39;41.44
57616;BME280;43816;52.054;-9.494;2022-10-16T00:16:41;99763.16;;;19.40;41.37
57616;BME280;43816;52.054;-9.494;2022-10-16T00:16:51;99759.75;;;19.32;41.68
57616;BME280;43816;52.054;-9.494;2022-10-16T00:17:01;99777.03;;;19.46;41.47
57616;BME280;43816;52.054;-9.494;2022-10-16T00:17:12;99768.81;;;19.39;41.63
57616;BME280;43816;52.054;-9.494;2022-10-16T00:17:22;99774.91;;;19.41;41.60
57616;BME280;43816;52.054;-9.494;2022-10-16T00:17:32;99767.75;;;19.40;41.57
57616;BME280;43816;52.054;-9.494;2022-10-16T00:17:42;99768.56;;;19.34;41.42
57616;BME280;43816;52.054;-9.494;2022-10-16T00:17:53;99766.91;;;19.39;41.28
57616;BME280;43816;52.054;-9.494;2022-10-16T00:18:04;99786.25;;;19.45;41.40
57616;BME280;43816;52.054;-9.494;2022-10-16T00:18:14;99765.25;;;19.38;41.46
57616;BME280;43816;52.054;-9.494;2022-10-16T00:18:26;99787.94;;;19.46;41.55
57616;BME280;43816;52.054;-9.494;2022-10-16T00:18:36;99753.22;;;19.33;41.54
57616;BME280;43816;52.054;-9.494;2022-10-16T00:18:47;99781.19;;;19.41;41.66
57616;BME280;43816;52.054;-9.494;2022-10-16T00:18:58;99790.03;;;19.44;41.85
57616;BME280;43816;52.054;-9.494;2022-10-16T00:19:10;99786.25;;;19.45;41.71
57616;BME280;43816;52.054;-9.494;2022-10-16T00:19:21;99767.13;;;19.38;41.62
57616;BME280;43816;52.054;-9.494;2022-10-16T00:19:31;99774.25;;;19.39;41.55
57616;BME280;43816;52.054;-9.494;2022-10-16T00:19:41;99766.66;;;19.34;41.76
57616;BME280;43816;52.054;-9.494;2022-10-16T00:19:52;99767.69;;;19.33;41.53
57616;BME280;43816;52.054;-9.494;2022-10-16T00:20:02;99769.41;;;19.34;41.37
57616;BME280;43816;52.054;-9.494;2022-10-16T00:20:13;99783.09;;;19.41;41.44
57616;BME280;43816;52.054;-9.494;2022-10-16T00:20:23;99778.41;;;19.35;41.45
57616;BME280;43816;52.054;-9.494;2022-10-16T00:20:34;99786.84;;;19.40;41.63
57616;BME280;43816;52.054;-9.494;2022-10-16T00:20:44;99783.28;;;19.39;41.54
57616;BME280;43816;52.054;-9.494;2022-10-16T00:20:55;99783.47;;;19.38;41.64
57616;BME280;43816;52.054;-9.494;2022-10-16T00:21:13;99773.19;;;19.40;41.43
57616;BME280;43816;52.054;-9.494;2022-10-16T00:21:26;99779.28;;;19.35;41.73
57616;BME280;43816;52.054;-9.494;2022-10-16T00:21:37;99788.72;;;19.39;41.45
57616;BME280;43816;52.054;-9.494;2022-10-16T00:21:47;99773.16;;;19.33;41.62
57616;BME280;43816;52.054;-9.494;2022-10-16T00:21:57;99772.13;;;19.34;41.73
57616;BME280;43816;52.054;-9.494;2022-10-16T00:22:08;99777.78;;;19.33;41.57
57616;BME280;43816;52.054;-9.494;2022-10-16T00:22:18;99783.69;;;19.36;41.53
57616;BME280;43816;52.054;-9.494;2022-10-16T00:22:28;99775.25;;;19.31;41.71
57616;BME280;43816;52.054;-9.494;2022-10-16T00:22:38;99776.09;;;19.32;41.57
57616;BME280;43816;52.054;-9.494;2022-10-16T00:22:49;99784.13;;;19.40;41.78
57616;BME280;43816;52.054;-9.494;2022-10-16T00:22:59;99770.66;;;19.32;41.62
57616;BME280;43816;52.054;-9.494;2022-10-16T00:23:09;99770.00;;;19.30;41.51
57616;BME280;43816;52.054;-9.494;2022-10-16T00:23:20;99788.09;;;19.37;41.68
57616;BME280;43816;52.054;-9.494;2022-10-16T00:23:31;99785.19;;;19.39;41.58
57616;BME280;43816;52.054;-9.494;2022-10-16T00:23:42;99786.41;;;19.36;41.61
57616;BME280;43816;52.054;-9.494;2022-10-16T00:23:54;99788.72;;;19.39;41.61
57616;BME280;43816;52.054;-9.494;2022-10-16T00:24:07;99773.38;;;19.32;41.74
57616;BME280;43816;52.054;-9.494;2022-10-16T00:24:17;99776.94;;;19.32;41.77
57616;BME280;43816;52.054;-9.494;2022-10-16T00:24:28;99784.53;;;19.37;41.64
57616;BME280;43816;52.054;-9.494;2022-10-16T00:24:38;99779.09;;;19.37;41.60
57616;BME280;43816;52.054;-9.494;2022-10-16T00:24:48;99784.34;;;19.38;41.57
57616;BME280;43816;52.054;-9.494;2022-10-16T00:24:59;99777.78;;;19.33;41.65
57616;BME280;43816;52.054;-9.494;2022-10-16T00:25:09;99773.16;;;19.33;41.47
57616;BME280;43816;52.054;-9.494;2022-10-16T00:25:19;99770.66;;;19.32;41.54
57616;BME280;43816;52.054;-9.494;2022-10-16T00:25:30;99770.22;;;19.35;41.52
57616;BME280;43816;52.054;-9.494;2022-10-16T00:25:40;99776.94;;;19.32;41.71
57616;BME280;43816;52.054;-9.494;2022-10-16T00:25:59;99775.25;;;19.31;41.60
57616;BME280;43816;52.054;-9.494;2022-10-16T00:26:13;99784.34;;;19.38;41.37
57616;BME280;43816;52.054;-9.494;2022-10-16T00:26:23;99785.38;;;19.37;41.62
57616;BME280;43816;52.054;-9.494;2022-10-16T00:26:34;99784.53;;;19.37;41.57
57616;BME280;43816;52.054;-9.494;2022-10-16T00:26:45;99777.78;;;19.33;41.56
57616;BME280;43816;52.054;-9.494;2022-10-16T00:26:59;99776.94;;;19.32;41.45
57616;BME280;43816;52.054;-9.494;2022-10-16T00:27:09;99777.78;;;19.33;41.39
57616;BME280;43816;52.054;-9.494;2022-10-16T00:27:20;99771.06;;;19.29;41.58
57616;BME280;43816;52.054;-9.494;2022-10-16T00:27:30;99784.53;;;19.37;41.53
57616;BME280;43816;52.054;-9.494;2022-10-16T00:27:40;99769.16;;;19.29;41.44
57616;BME280;43816;52.054;-9.494;2022-10-16T00:27:50;99777.16;;;19.31;41.58
57616;BME280;43816;52.054;-9.494;2022-10-16T00:28:01;99790.81;;;19.37;41.46
57616;BME280;43816;52.054;-9.494;2022-10-16T00:28:11;99781.13;;;19.35;41.41
57616;BME280;43816;52.054;-9.494;2022-10-16T00:28:21;99785.75;;;19.34;41.58
57616;BME280;43816;52.054;-9.494;2022-10-16T00:28:32;99771.44;;;19.26;41.50
57616;BME280;43816;52.054;-9.494;2022-10-16T00:28:46;99789.13;;;19.36;41.58
57616;BME280;43816;52.054;-9.494;2022-10-16T00:28:56;99791.03;;;19.36;41.58
57616;BME280;43816;52.054;-9.494;2022-10-16T00:29:07;99785.75;;;19.34;41.44
57616;BME280;43816;52.054;-9.494;2022-10-16T00:29:17;99790.38;;;19.34;41.33
57616;BME280;43816;52.054;-9.494;2022-10-16T00:29:28;99783.44;;;19.31;41.63
57616;BME280;43816;52.054;-9.494;2022-10-16T00:29:38;99780.91;;;19.30;41.38
57616;BME280;43816;52.054;-9.494;2022-10-16T00:29:52;99781.56;;;19.32;41.71
57616;BME280;43816;52.054;-9.494;2022-10-16T00:30:03;99773.78;;;19.29;41.68
57616;BME280;43816;52.054;-9.494;2022-10-16T00:30:13;99779.88;;;19.31;41.59
57616;BME280;43816;52.054;-9.494;2022-10-16T00:30:24;99778.16;;;19.30;41.61
57616;BME280;43816;52.054;-9.494;2022-10-16T00:30:37;99791.22;;;19.34;41.69
57616;BME280;43816;52.054;-9.494;2022-10-16T00:30:48;99784.94;;;19.34;41.24
57616;BME280;43816;52.054;-9.494;2022-10-16T00:30:58;99796.66;;;19.34;41.55
57616;BME280;43816;52.054;-9.494;2022-10-16T00:31:10;99782.41;;;19.32;41.72
57616;BME280;43816;52.054;-9.494;2022-10-16T00:31:22;99772.91;;;19.28;41.63
57616;BME280;43816;52.054;-9.494;2022-10-16T00:31:33;99786.78;;;19.33;41.53
57616;BME280;43816;52.054;-9.494;2022-10-16T00:31:43;99775.44;;;19.30;41.49
57616;BME280;43816;52.054;-9.494;2022-10-16T00:31:53;99792.25;;;19.33;41.58
57616;BME280;43816;52.054;-9.494;2022-10-16T00:32:04;99790.38;;;19.34;41.57
57616;BME280;43816;52.054;-9.494;2022-10-16T00:32:14;99779.88;;;19.31;41.46
57616;BME280;43816;52.054;-9.494;2022-10-16T00:32:24;99788.69;;;19.33;41.57
57616;BME280;43816;52.054;-9.494;2022-10-16T00:32:35;99774.81;;;19.28;41.45
57616;BME280;43816;52.054;-9.494;2022-10-16T00:32:45;99778.56;;;19.27;41.54
57616;BME280;43816;52.054;-9.494;2022-10-16T00:32:55;99793.31;;;19.32;41.63
57616;BME280;43816;52.054;-9.494;2022-10-16T00:33:06;99776.91;;;19.26;41.67
57616;BME280;43816;52.054;-9.494;2022-10-16T00:33:16;99793.31;;;19.32;41.47
57616;BME280;43816;52.054;-9.494;2022-10-16T00:33:26;99788.69;;;19.33;41.56
57616;BME280;43816;52.054;-9.494;2022-10-16T00:33:38;99786.53;;;19.28;41.51
57616;BME280;43816;52.054;-9.494;2022-10-16T00:33:50;99784.88;;;19.27;41.44
57616;BME280;43816;52.054;-9.494;2022-10-16T00:34:00;99790.97;;;19.29;41.49
57616;BME280;43816;52.054;-9.494;2022-10-16T00:34:11;99782.16;;;19.27;41.46
57616;BME280;43816;52.054;-9.494;2022-10-16T00:34:21;99789.94;;;19.30;41.76
57616;BME280;43816;52.054;-9.494;2022-10-16T00:34:31;99794.53;;;19.30;41.56
57616;BME280;43816;52.054;-9.494;2022-10-16T00:34:41;99784.00;;;19.27;41.76
57616;BME280;43816;52.054;-9.494;2022-10-16T00:34:52;99792.88;;;19.29;41.62
57616;BME280;43816;52.054;-9.494;2022-10-16T00:35:02;99788.25;;;19.29;41.60
57616;BME280;43816;52.054;-9.494;2022-10-16T00:35:12;99796.03;;;19.32;41.46
57616;BME280;43816;52.054;-9.494;2022-10-16T00:35:23;99783.19;;;19.26;41.53
57616;BME280;43816;52.054;-9.494;2022-10-16T00:35:33;99796.22;;;19.31;41.47
57616;BME280;43816;52.054;-9.494;2022-10-16T00:35:43;99787.41;;;19.29;41.37
57616;BME280;43816;52.054;-9.494;2022-10-16T00:35:54;99797.47;;;19.28;41.54
57616;BME280;43816;52.054;-9.494;2022-10-16T00:36:13;99802.53;;;19.31;41.50
57616;BME280;43816;52.054;-9.494;2022-10-16T00:36:24;99804.22;;;19.32;41.32
57616;BME280;43816;52.054;-9.494;2022-10-16T00:36:35;99774.72;;;19.14;41.44
57616;BME280;43816;52.054;-9.494;2022-10-16T00:36:45;99783.78;;;19.21;41.39
57616;BME280;43816;52.054;-9.494;2022-10-16T00:36:55;99794.09;;;19.26;41.42
57616;BME280;43816;52.054;-9.494;2022-10-16T00:37:06;99782.75;;;19.22;41.48
57616;BME280;43816;52.054;-9.494;2022-10-16T00:37:16;99792.88;;;19.29;41.60
57616;BME280;43816;52.054;-9.494;2022-10-16T00:37:26;99789.03;;;19.23;41.43
57616;BME280;43816;52.054;-9.494;2022-10-16T00:37:37;99786.50;;;19.21;41.45
57616;BME280;43816;52.054;-9.494;2022-10-16T00:37:47;99799.78;;;19.31;41.48
57616;BME280;43816;52.054;-9.494;2022-10-16T00:37:57;99792.19;;;19.27;41.43
57616;BME280;43816;52.054;-9.494;2022-10-16T00:38:07;99792.81;;;19.22;41.81
57616;BME280;43816;52.054;-9.494;2022-10-16T00:38:18;99802.06;;;19.28;41.52
57616;BME280;43816;52.054;-9.494;2022-10-16T00:38:28;99791.38;;;19.26;41.41
57616;BME280;43816;52.054;-9.494;2022-10-16T00:38:39;99799.34;;;19.28;41.75
57616;BME280;43816;52.054;-9.494;2022-10-16T00:38:51;99789.91;;;19.23;41.51
57616;BME280;43816;52.054;-9.494;2022-10-16T00:39:02;99790.72;;;19.24;41.55
57616;BME280;43816;52.054;-9.494;2022-10-16T00:39:12;99808.16;;;19.30;41.45
57616;BME280;43816;52.054;-9.494;2022-10-16T00:39:23;99793.66;;;19.22;41.31
57616;BME280;43816;52.054;-9.494;2022-10-16T00:39:33;99798.06;;;19.23;41.46
57616;BME280;43816;52.054;-9.494;2022-10-16T00:39:43;99802.72;;;19.30;41.23
57616;BME280;43816;52.054;-9.494;2022-10-16T00:39:53;99798.91;;;19.24;41.54
57616;BME280;43816;52.054;-9.494;2022-10-16T00:40:04;99807.34;;;19.29;41.46
57616;BME280;43816;52.054;-9.494;2022-10-16T00:40:15;99803.09;;;19.27;41.39
57616;BME280;43816;52.054;-9.494;2022-10-16T00:40:25;99790.28;;;19.20;41.56
57616;BME280;43816;52.054;-9.494;2022-10-16T00:40:35;99802.91;;;19.28;41.44
57616;BME280;43816;52.054;-9.494;2022-10-16T00:40:45;99796.38;;;19.22;41.53
57616;BME280;43816;52.054;-9.494;2022-10-16T00:40:56;99796.38;;;19.22;41.53
57616;BME280;43816;52.054;-9.494;2022-10-16T00:41:07;99800.13;;;19.21;41.41
57616;BME280;43816;52.054;-9.494;2022-10-16T00:41:22;99812.78;;;19.29;41.35
57616;BME280;43816;52.054;-9.494;2022-10-16T00:41:33;99804.16;;;19.26;41.31
57616;BME280;43816;52.054;-9.494;2022-10-16T00:41:44;99800.81;;;19.23;41.31
57616;BME280;43816;52.054;-9.494;2022-10-16T00:41:54;99798.28;;;19.22;41.59
57616;BME280;43816;52.054;-9.494;2022-10-16T00:42:04;99804.56;;;19.22;41.44
57616;BME280;43816;52.054;-9.494;2022-10-16T00:42:18;99795.75;;;19.20;41.43
57616;BME280;43816;52.054;-9.494;2022-10-16T00:42:28;99812.34;;;19.26;41.61
57616;BME280;43816;52.054;-9.494;2022-10-16T00:42:39;99809.44;;;19.27;41.44
57616;BME280;43816;52.054;-9.494;2022-10-16T00:42:49;99802.66;;;19.23;41.48
57616;BME280;43816;52.054;-9.494;2022-10-16T00:42:59;99803.06;;;19.20;41.55
57616;BME280;43816;52.054;-9.494;2022-10-16T00:43:34;99808.56;;;19.27;41.46
57616;BME280;43816;52.054;-9.494;2022-10-16T00:43:50;99813.38;;;19.25;41.32
57616;BME280;43816;52.054;-9.494;2022-10-16T00:44:04;99808.56;;;19.27;41.34
57616;BME280;43816;52.054;-9.494;2022-10-16T00:44:55;99807.94;;;19.25;41.45
57616;BME280;43816;52.054;-9.494;2022-10-16T00:45:06;99816.75;;;19.27;41.46
57616;BME280;43816;52.054;-9.494;2022-10-16T00:45:16;99803.72;;;19.22;41.40
57616;BME280;43816;52.054;-9.494;2022-10-16T00:45:27;99804.16;;;19.26;41.35
57616;BME280;43816;52.054;-9.494;2022-10-16T00:45:37;99812.34;;;19.26;41.46
57616;BME280;43816;52.054;-9.494;2022-10-16T00:45:47;99809.81;;;19.24;41.43
57616;BME280;43816;52.054;-9.494;2022-10-16T00:45:58;99795.28;;;19.17;41.62
57616;BME280;43816;52.054;-9.494;2022-10-16T00:46:21;99810.22;;;19.21;41.31
57616;BME280;43816;52.054;-9.494;2022-10-16T00:46:42;99812.53;;;19.24;41.53
57616;BME280;43816;52.054;-9.494;2022-10-16T00:46:52;99789.31;;;19.07;41.55
57616;BME280;43816;52.054;-9.494;2022-10-16T00:47:02;99813.75;;;19.21;41.61
57616;BME280;43816;52.054;-9.494;2022-10-16T00:47:19;99810.41;;;19.19;41.43
57616;BME280;43816;52.054;-9.494;2022-10-16T00:47:47;99807.47;;;19.21;41.42
57616;BME280;43816;52.054;-9.494;2022-10-16T00:47:58;99805.78;;;19.20;41.37
57616;BME280;43816;52.054;-9.494;2022-10-16T00:48:13;99799.06;;;19.16;41.70
57616;BME280;43816;52.054;-9.494;2022-10-16T00:48:23;99817.16;;;19.23;41.44
57616;BME280;43816;52.054;-9.494;2022-10-16T00:48:33;99811.44;;;19.18;41.08
57616;BME280;43816;52.054;-9.494;2022-10-16T00:48:48;99811.44;;;19.18;41.55
57616;BME280;43816;52.054;-9.494;2022-10-16T00:49:09;99798.22;;;19.15;41.35
57616;BME280;43816;52.054;-9.494;2022-10-16T00:49:20;99812.09;;;19.20;41.35
57616;BME280;43816;52.054;-9.494;2022-10-16T00:49:30;99809.38;;;19.20;41.43
57616;BME280;43816;52.054;-9.494;2022-10-16T00:49:41;99803.47;;;19.17;41.28
57616;BME280;43816;52.054;-9.494;2022-10-16T00:49:55;99799.25;;;19.14;41.44
57616;BME280;43816;52.054;-9.494;2022-10-16T00:50:30;99809.97;;;19.16;41.35
57616;BME280;43816;52.054;-9.494;2022-10-16T00:50:41;99802.81;;;19.15;41.30
57616;BME280;43816;52.054;-9.494;2022-10-16T00:50:52;99809.75;;;19.17;41.35
57616;BME280;43816;52.054;-9.494;2022-10-16T00:51:04;99807.22;;;19.16;41.30
57616;BME280;43816;52.054;-9.494;2022-10-16T00:51:19;99812.94;;;19.21;41.29
57616;BME280;43816;52.054;-9.494;2022-10-16T00:51:43;99815.84;;;19.19;41.23
57616;BME280;43816;52.054;-9.494;2022-10-16T00:51:55;99805.72;;;19.13;41.44
57616;BME280;43816;52.054;-9.494;2022-10-16T00:52:05;99801.13;;;19.14;41.36
57616;BME280;43816;52.054;-9.494;2022-10-16T00:52:16;99811.22;;;19.20;41.21
57616;BME280;43816;52.054;-9.494;2022-10-16T00:52:27;99814.38;;;19.17;41.35
57616;BME280;43816;52.054;-9.494;2022-10-16T00:52:41;99807.44;;;19.14;41.58
57616;BME280;43816;52.054;-9.494;2022-10-16T00:52:53;99812.28;;;19.19;41.33
57616;BME280;43816;52.054;-9.494;2022-10-16T00:53:04;99817.94;;;19.17;41.53
57616;BME280;43816;52.054;-9.494;2022-10-16T00:53:16;99815.03;;;19.19;41.35
57616;BME280;43816;52.054;-9.494;2022-10-16T00:53:27;99800.22;;;19.07;41.29
57616;BME280;43816;52.054;-9.494;2022-10-16T00:53:38;99801.53;;;19.11;41.47
57616;BME280;43816;52.054;-9.494;2022-10-16T00:53:49;99803.19;;;19.12;41.50
57616;BME280;43816;52.054;-9.494;2022-10-16T00:54:02;99799.84;;;19.10;41.33
57616;BME280;43816;52.054;-9.494;2022-10-16T00:54:16;99808.47;;;19.13;41.08
57616;BME280;43816;52.054;-9.494;2022-10-16T00:54:29;99807.03;;;19.17;41.37
57616;BME280;43816;52.054;-9.494;2022-10-16T00:54:41;99804.06;;;19.12;41.51
57616;BME280;43816;52.054;-9.494;2022-10-16T00:54:52;99812.88;;;19.14;41.30
57616;BME280;43816;52.054;-9.494;2022-10-16T00:55:04;99788.88;;;19.03;41.43
57616;BME280;43816;52.054;-9.494;2022-10-16T00:55:16;99808.94;;;19.17;41.27
57616;BME280;43816;52.054;-9.494;2022-10-16T00:55:28;99807.63;;;19.13;41.56
57616;BME280;43816;52.054;-9.494;2022-10-16T00:55:38;99804.69;;;19.14;41.44
57616;BME280;43816;52.054;-9.494;2022-10-16T00:55:49;99812.88;;;19.14;41.37
57616;BME280;43816;52.054;-9.494;2022-10-16T00:55:59;99811.19;;;19.13;41.33
57616;BME280;43816;52.054;-9.494;2022-10-16T00:56:09;99801.09;;;19.07;41.43
57616;BME280;43816;52.054;-9.494;2022-10-16T00:56:19;99811.19;;;19.13;41.53
57616;BME280;43816;52.054;-9.494;2022-10-16T00:56:31;99805.28;;;19.10;41.31
57616;BME280;43816;52.054;-9.494;2022-10-16T00:56:42;99817.94;;;19.17;41.39
57616;BME280;43816;52.054;-9.494;2022-10-16T00:56:54;99804.44;;;19.09;41.49
57616;BME280;43816;52.054;-9.494;2022-10-16T00:57:06;99820.66;;;19.17;41.36
57616;BME280;43816;52.054;-9.494;2022-10-16T00:57:16;99808.66;;;19.12;41.46
57616;BME280;43816;52.054;-9.494;2022-10-16T00:57:27;99809.06;;;19.09;41.38
57616;BME280;43816;52.054;-9.494;2022-10-16T00:57:38;99816.25;;;19.16;41.42
57616;BME280;43816;52.054;-9.494;2022-10-16T00:57:49;99802.75;;;19.08;41.34
57616;BME280;43816;52.054;-9.494;2022-10-16T00:58:00;99810.16;;;19.14;41.20
57616;BME280;43816;52.054;-9.494;2022-10-16T00:58:11;99811.19;;;19.13;41.37
57616;BME280;43816;52.054;-9.494;2022-10-16T00:58:21;99817.31;;;19.15;41.32
57616;BME280;43816;52.054;-9.494;2022-10-16T00:58:32;99820.88;;;19.16;41.28
57616;BME280;43816;52.054;-9.494;2022-10-16T00:58:42;99810.34;;;19.13;41.34
57616;BME280;43816;52.054;-9.494;2022-10-16T00:58:52;99813.91;;;19.13;41.55
57616;BME280;43816;52.054;-9.494;2022-10-16T00:59:09;99812.03;;;19.14;41.39
57616;BME280;43816;52.054;-9.494;2022-10-16T00:59:30;99823.59;;;19.16;41.35
57616;BME280;43816;52.054;-9.494;2022-10-16T00:59:42;99812.00;;;19.07;41.29
57616;BME280;43816;52.054;-9.494;2022-10-16T00:59:53;99817.31;;;19.15;41.45
57616;BME280;43816;52.054;-9.494;2022-10-16T01:00:06;99825.47;;;19.15;41.32
57616;BME280;43816;52.054;-9.494;2022-10-16T01:00:23;99789.25;;;19.00;41.42
57616;BME280;43816;52.054;-9.494;2022-10-16T01:00:33;99812.00;;;19.07;41.32
57616;BME280;43816;52.054;-9.494;2022-10-16T01:00:44;99799.59;;;19.04;41.17
57616;BME280;43816;52.054;-9.494;2022-10-16T01:00:54;99812.00;;;19.07;41.30